createdAt,value
2018-11-03T00:00:20.106Z,10.80
2018-11-03T00:02:48.574Z,10.80
2018-11-03T00:05:17.431Z,10.70
2018-11-03T00:07:46.564Z,10.70
2018-11-03T00:10:15.035Z,10.70
2018-11-03T00:12:43.474Z,10.70
2018-11-03T00:15:11.983Z,10.60
2018-11-03T00:17:40.477Z,10.60
2018-11-03T00:20:09.031Z,10.60
2018-11-03T00:22:37.537Z,10.60
2018-11-03T00:25:07.172Z,10.60
2018-11-03T00:27:35.619Z,10.60
2018-11-03T00:30:05.618Z,10.60
2018-11-03T00:32:34.126Z,10.70
2018-11-03T00:35:02.582Z,10.70
2018-11-03T00:37:31.061Z,10.70
2018-11-03T00:39:59.551Z,10.70
2018-11-03T00:42:28.062Z,10.70
2018-11-03T00:44:56.524Z,10.70
2018-11-03T00:47:24.982Z,10.60
2018-11-03T00:49:53.421Z,10.70
2018-11-03T00:52:21.861Z,10.60
2018-11-03T00:54:53.399Z,10.60
2018-11-03T00:57:21.845Z,10.60
2018-11-03T00:59:50.335Z,10.60
2018-11-03T01:02:18.839Z,10.50
2018-11-03T01:04:47.319Z,10.50
2018-11-03T01:07:15.899Z,10.50
2018-11-03T01:09:44.412Z,10.50
2018-11-03T01:12:12.879Z,10.40
2018-11-03T01:14:41.610Z,10.30
2018-11-03T01:17:10.070Z,10.20
2018-11-03T01:19:38.566Z,10.20
2018-11-03T01:22:07.082Z,10.20
2018-11-03T01:24:35.524Z,10.20
2018-11-03T01:27:03.994Z,10.10
2018-11-03T01:29:32.522Z,10.10
2018-11-03T01:32:00.961Z,10.00
2018-11-03T01:34:29.430Z,10.00
2018-11-03T01:36:58.015Z,9.90
2018-11-03T01:39:26.564Z,9.90
2018-11-03T01:41:55.013Z,9.90
2018-11-03T01:44:23.501Z,9.90
2018-11-03T01:46:51.957Z,9.90
2018-11-03T01:49:20.431Z,9.90
2018-11-03T01:51:48.937Z,9.90
2018-11-03T01:54:17.428Z,9.90
2018-11-03T01:56:45.875Z,10.00
2018-11-03T01:59:14.356Z,9.90
2018-11-03T02:01:42.861Z,9.90
2018-11-03T02:04:11.341Z,9.90
2018-11-03T02:06:39.791Z,9.90
2018-11-03T02:09:09.499Z,9.80
2018-11-03T02:11:38.116Z,9.90
2018-11-03T02:14:06.798Z,9.80
2018-11-03T02:16:35.211Z,9.80
2018-11-03T02:19:03.746Z,9.80
2018-11-03T02:21:32.229Z,9.80
2018-11-03T02:24:00.675Z,9.80
2018-11-03T02:26:29.145Z,9.80
2018-11-03T02:28:57.595Z,9.80
2018-11-03T02:31:26.050Z,9.70
2018-11-03T02:33:54.549Z,9.70
2018-11-03T02:36:22.976Z,9.70
2018-11-03T02:38:51.435Z,9.70
2018-11-03T02:41:19.945Z,9.70
2018-11-03T02:43:48.372Z,9.70
2018-11-03T02:46:16.929Z,9.70
2018-11-03T02:48:45.668Z,9.60
2018-11-03T02:51:14.189Z,9.70
2018-11-03T02:53:42.951Z,9.70
2018-11-03T02:56:11.414Z,9.70
2018-11-03T02:58:39.866Z,9.60
2018-11-03T03:01:08.526Z,9.60
2018-11-03T03:03:36.971Z,9.60
2018-11-03T03:06:05.475Z,9.60
2018-11-03T03:08:34.066Z,9.60
2018-11-03T03:11:02.539Z,9.50
2018-11-03T03:13:31.089Z,9.50
2018-11-03T03:15:59.708Z,9.60
2018-11-03T03:18:28.151Z,9.60
2018-11-03T03:20:56.611Z,9.60
2018-11-03T03:23:25.072Z,9.50
2018-11-03T03:25:53.626Z,9.50
2018-11-03T03:28:22.075Z,9.50
2018-11-03T03:30:50.553Z,9.50
2018-11-03T03:33:19.269Z,9.40
2018-11-03T03:35:47.711Z,9.50
2018-11-03T03:38:16.195Z,9.50
2018-11-03T03:40:44.632Z,9.50
2018-11-03T03:43:13.122Z,9.50
2018-11-03T03:45:41.650Z,9.40
2018-11-03T03:48:10.145Z,9.40
2018-11-03T03:50:38.726Z,9.50
2018-11-03T03:53:07.196Z,9.40
2018-11-03T03:55:35.669Z,9.50
2018-11-03T03:58:04.152Z,9.40
2018-11-03T04:00:32.589Z,9.40
2018-11-03T04:03:01.065Z,9.50
2018-11-03T04:05:29.707Z,9.50
2018-11-03T04:07:58.151Z,9.50
2018-11-03T04:10:26.597Z,9.50
2018-11-03T04:12:55.135Z,9.40
2018-11-03T04:15:23.589Z,9.40
2018-11-03T04:17:52.096Z,9.40
2018-11-03T04:20:20.612Z,9.40
2018-11-03T04:22:49.071Z,9.40
2018-11-03T04:25:17.534Z,9.40
2018-11-03T04:27:46.026Z,9.40
2018-11-03T04:30:14.696Z,9.40
2018-11-03T04:32:43.855Z,9.30
2018-11-03T04:35:12.362Z,9.40
2018-11-03T04:37:41.120Z,9.40
2018-11-03T04:40:11.392Z,9.40
2018-11-03T04:42:40.042Z,9.40
2018-11-03T04:45:09.081Z,9.40
2018-11-03T04:47:37.740Z,9.40
2018-11-03T04:50:06.742Z,9.40
2018-11-03T04:52:35.262Z,9.40
2018-11-03T04:55:04.031Z,9.40
2018-11-03T04:57:32.435Z,9.40
2018-11-03T05:00:00.891Z,9.50
2018-11-03T05:02:29.395Z,9.50
2018-11-03T05:04:57.882Z,9.40
2018-11-03T05:07:26.396Z,9.40
2018-11-03T05:09:54.937Z,9.40
2018-11-03T05:12:23.467Z,9.40
2018-11-03T05:14:51.930Z,9.40
2018-11-03T05:17:20.695Z,9.40
2018-11-03T05:19:49.299Z,9.40
2018-11-03T05:22:17.788Z,9.40
2018-11-03T05:24:46.225Z,9.40
2018-11-03T05:27:14.755Z,9.40
2018-11-03T05:29:43.206Z,9.30
2018-11-03T05:32:11.632Z,9.30
2018-11-03T05:34:40.175Z,9.30
2018-11-03T05:37:08.652Z,9.30
2018-11-03T05:39:37.109Z,9.20
2018-11-03T05:42:06.289Z,9.30
2018-11-03T05:44:34.814Z,9.30
2018-11-03T05:47:03.266Z,9.30
2018-11-03T05:49:31.743Z,9.30
2018-11-03T05:52:00.258Z,9.30
2018-11-03T05:54:29.039Z,9.40
2018-11-03T05:56:57.565Z,9.40
2018-11-03T05:59:26.200Z,9.40
2018-11-03T06:01:54.706Z,9.40
2018-11-03T06:04:23.160Z,9.40
2018-11-03T06:06:51.583Z,9.40
2018-11-03T06:09:20.406Z,9.40
2018-11-03T06:11:48.835Z,9.40
2018-11-03T06:14:17.262Z,9.40
2018-11-03T06:16:45.765Z,9.40
2018-11-03T06:19:17.282Z,9.40
2018-11-03T06:21:45.745Z,9.40
2018-11-03T06:24:17.229Z,9.40
2018-11-03T06:26:45.729Z,9.40
2018-11-03T06:29:17.182Z,9.40
2018-11-03T06:31:45.733Z,9.40
2018-11-03T06:34:14.229Z,9.40
2018-11-03T06:36:42.710Z,9.50
2018-11-03T06:39:11.300Z,9.40
2018-11-03T06:41:39.772Z,9.40
2018-11-03T06:44:08.819Z,9.50
2018-11-03T06:46:37.413Z,9.50
2018-11-03T06:49:10.330Z,9.50
2018-11-03T06:51:38.847Z,9.50
2018-11-03T06:54:07.417Z,9.50
2018-11-03T06:56:36.039Z,9.50
2018-11-03T06:59:04.658Z,9.50
2018-11-03T07:01:33.240Z,9.50
2018-11-03T07:04:01.734Z,9.50
2018-11-03T07:06:30.327Z,9.50
2018-11-03T07:08:58.997Z,9.50
2018-11-03T07:11:27.590Z,9.50
2018-11-03T07:13:56.072Z,9.60
2018-11-03T07:16:24.739Z,9.60
2018-11-03T07:19:00.108Z,9.60
2018-11-03T07:21:28.812Z,9.70
2018-11-03T07:23:57.271Z,9.70
2018-11-03T07:26:25.929Z,9.70
2018-11-03T07:28:54.606Z,9.70
2018-11-03T07:31:23.084Z,9.70
2018-11-03T07:33:51.666Z,9.70
2018-11-03T07:36:20.225Z,9.70
2018-11-03T07:38:48.933Z,9.80
2018-11-03T07:41:17.483Z,9.70
2018-11-03T07:43:45.893Z,9.80
2018-11-03T07:46:14.310Z,9.80
2018-11-03T07:48:42.902Z,9.90
2018-11-03T07:51:11.337Z,9.90
2018-11-03T07:53:39.886Z,9.90
2018-11-03T07:56:08.497Z,9.90
2018-11-03T07:58:37.075Z,9.90
2018-11-03T08:01:05.666Z,10.00
2018-11-03T08:03:34.239Z,10.00
2018-11-03T08:06:02.829Z,9.90
2018-11-03T08:08:31.322Z,9.90
2018-11-03T08:10:59.884Z,10.00
2018-11-03T08:13:28.577Z,10.00
2018-11-03T08:15:57.049Z,10.00
2018-11-03T08:18:25.539Z,10.00
2018-11-03T08:20:54.005Z,10.00
2018-11-03T08:23:23.010Z,9.90
2018-11-03T08:25:51.535Z,9.90
2018-11-03T08:28:20.058Z,10.00
2018-11-03T08:30:48.569Z,10.00
2018-11-03T08:33:17.034Z,10.00
2018-11-03T08:35:45.491Z,10.10
2018-11-03T08:38:14.075Z,10.20
2018-11-03T08:40:42.504Z,10.30
2018-11-03T08:43:11.046Z,10.50
2018-11-03T08:45:39.503Z,10.60
2018-11-03T08:48:07.993Z,10.60
2018-11-03T08:50:36.488Z,10.60
2018-11-03T08:53:05.225Z,10.60
2018-11-03T08:55:33.738Z,10.60
2018-11-03T08:58:02.168Z,10.60
2018-11-03T09:00:30.653Z,10.70
2018-11-03T09:02:59.071Z,10.60
2018-11-03T09:05:27.526Z,10.70
2018-11-03T09:07:56.139Z,10.80
2018-11-03T09:10:24.618Z,10.80
2018-11-03T09:12:53.052Z,10.70
2018-11-03T09:15:21.799Z,10.80
2018-11-03T09:17:50.161Z,10.80
2018-11-03T09:20:18.608Z,10.80
2018-11-03T09:22:47.171Z,10.80
2018-11-03T09:25:16.467Z,10.80
2018-11-03T09:27:45.510Z,10.90
2018-11-03T09:30:16.325Z,10.90
2018-11-03T09:32:44.811Z,10.90
2018-11-03T09:35:14.254Z,10.90
2018-11-03T09:37:42.663Z,10.90
2018-11-03T09:40:13.632Z,11.00
2018-11-03T09:42:42.966Z,11.00
2018-11-03T09:45:12.210Z,11.00
2018-11-03T09:47:41.200Z,10.90
2018-11-03T09:50:11.291Z,10.90
2018-11-03T09:52:40.174Z,11.00
2018-11-03T09:55:11.214Z,11.00
2018-11-03T09:57:39.802Z,11.00
2018-11-03T10:00:14.248Z,11.00
2018-11-03T10:02:42.974Z,11.00
2018-11-03T10:05:12.654Z,11.10
2018-11-03T10:07:41.525Z,11.20
2018-11-03T10:10:13.066Z,11.20
2018-11-03T10:12:41.981Z,11.20
2018-11-03T10:15:10.994Z,11.30
2018-11-03T10:17:39.483Z,11.30
2018-11-03T10:20:08.828Z,11.20
2018-11-03T10:22:37.617Z,11.20
2018-11-03T10:25:09.312Z,11.20
2018-11-03T10:27:37.806Z,11.20
2018-11-03T10:30:07.702Z,11.10
2018-11-03T10:32:36.462Z,11.10
2018-11-03T10:35:06.717Z,11.10
2018-11-03T10:37:35.256Z,11.10
2018-11-03T10:40:04.189Z,11.20
2018-11-03T10:42:32.672Z,11.20
2018-11-03T10:45:01.149Z,11.30
2018-11-03T10:47:29.586Z,11.40
2018-11-03T10:49:58.097Z,11.40
2018-11-03T10:52:26.698Z,11.40
2018-11-03T10:54:55.281Z,11.50
2018-11-03T10:57:23.809Z,11.60
2018-11-03T10:59:52.330Z,11.50
2018-11-03T11:02:25.119Z,11.50
2018-11-03T11:04:57.799Z,11.50
2018-11-03T11:07:30.469Z,11.60
2018-11-03T11:10:03.131Z,11.70
2018-11-03T11:12:36.135Z,11.70
2018-11-03T11:15:07.689Z,11.70
2018-11-03T11:17:36.376Z,11.70
2018-11-03T11:20:06.295Z,11.80
2018-11-03T11:22:34.781Z,11.80
2018-11-03T11:25:03.764Z,11.70
2018-11-03T11:27:32.241Z,11.80
2018-11-03T11:30:00.818Z,11.80
2018-11-03T11:32:29.330Z,11.90
2018-11-03T11:34:57.771Z,12.00
2018-11-03T11:37:26.432Z,12.10
2018-11-03T11:39:54.861Z,12.30
2018-11-03T11:42:23.320Z,12.50
2018-11-03T11:44:51.771Z,12.70
2018-11-03T11:47:20.275Z,13.00
2018-11-03T11:49:48.718Z,13.20
2018-11-03T11:52:17.239Z,13.20
2018-11-03T11:54:45.789Z,13.30
2018-11-03T11:57:14.188Z,13.30
2018-11-03T11:59:43.042Z,13.10
2018-11-03T12:02:11.719Z,13.10
2018-11-03T12:04:40.158Z,13.00
2018-11-03T12:07:08.711Z,12.90
2018-11-03T12:09:37.171Z,12.80
2018-11-03T12:12:05.702Z,12.60
2018-11-03T12:14:34.251Z,12.40
2018-11-03T12:17:02.747Z,12.30
2018-11-03T12:19:31.299Z,12.30
2018-11-03T12:21:59.782Z,12.20
2018-11-03T12:24:28.281Z,12.20
2018-11-03T12:26:56.720Z,12.30
2018-11-03T12:29:25.215Z,12.40
2018-11-03T12:31:53.832Z,12.40
2018-11-03T12:34:22.422Z,12.40
2018-11-03T12:36:50.924Z,12.40
2018-11-03T12:39:19.579Z,12.30
2018-11-03T12:41:48.022Z,12.30
2018-11-03T12:44:16.536Z,12.30
2018-11-03T12:46:45.212Z,12.30
2018-11-03T12:49:13.680Z,12.40
2018-11-03T12:51:42.173Z,12.40
2018-11-03T12:54:10.665Z,12.50
2018-11-03T12:56:39.209Z,12.50
2018-11-03T12:59:07.755Z,12.50
2018-11-03T13:01:36.211Z,12.70
2018-11-03T13:04:04.950Z,12.80
2018-11-03T13:06:33.459Z,13.00
2018-11-03T13:09:02.042Z,13.10
2018-11-03T13:11:30.521Z,13.00
2018-11-03T13:13:58.979Z,12.90
2018-11-03T13:16:27.456Z,12.90
2018-11-03T13:18:55.956Z,12.70
2018-11-03T13:21:24.649Z,12.50
2018-11-03T13:23:53.101Z,12.40
2018-11-03T13:26:21.589Z,12.20
2018-11-03T13:28:50.265Z,12.20
2018-11-03T13:31:19.077Z,12.10
2018-11-03T13:33:47.733Z,12.10
2018-11-03T13:36:16.163Z,12.10
2018-11-03T13:38:45.043Z,12.00
2018-11-03T13:41:13.563Z,12.10
2018-11-03T13:43:42.102Z,11.90
2018-11-03T13:46:10.669Z,11.90
2018-11-03T13:48:39.260Z,11.80
2018-11-03T13:51:07.782Z,11.80
2018-11-03T13:53:36.303Z,11.80
2018-11-03T13:56:04.899Z,11.80
2018-11-03T13:58:35.633Z,11.80
2018-11-03T14:01:04.213Z,11.70
2018-11-03T14:03:32.801Z,11.70
2018-11-03T14:06:01.367Z,11.60
2018-11-03T14:08:29.847Z,11.70
2018-11-03T14:10:58.444Z,11.70
2018-11-03T14:13:27.002Z,11.70
2018-11-03T14:15:55.492Z,11.70
2018-11-03T14:18:23.963Z,11.70
2018-11-03T14:20:52.569Z,11.70
2018-11-03T14:23:21.194Z,11.70
2018-11-03T14:25:49.712Z,11.60
2018-11-03T14:28:18.308Z,11.50
2018-11-03T14:30:46.822Z,11.40
2018-11-03T14:33:15.385Z,11.30
2018-11-03T14:35:43.927Z,11.30
2018-11-03T14:38:12.411Z,11.20
2018-11-03T14:40:41.315Z,11.20
2018-11-03T14:43:09.842Z,11.20
2018-11-03T14:45:38.352Z,11.10
2018-11-03T14:48:07.018Z,11.00
2018-11-03T14:50:35.856Z,11.00
2018-11-03T14:53:04.439Z,11.00
2018-11-03T14:55:47.401Z,10.90
2018-11-03T14:58:16.013Z,10.90
2018-11-03T15:00:44.489Z,10.80
2018-11-03T15:03:13.098Z,10.80
2018-11-03T15:05:41.671Z,10.80
2018-11-03T15:08:10.147Z,10.80
2018-11-03T15:10:46.277Z,10.80
2018-11-03T15:13:15.427Z,10.80
2018-11-03T15:15:43.935Z,10.80
2018-11-03T15:18:12.460Z,10.70
2018-11-03T15:20:40.980Z,10.70
2018-11-03T15:23:09.465Z,10.70
2018-11-03T15:25:37.980Z,10.70
2018-11-03T15:28:06.872Z,10.70
2018-11-03T15:30:35.327Z,10.70
2018-11-03T15:33:03.892Z,10.60
2018-11-03T15:35:32.407Z,10.60
2018-11-03T15:38:00.929Z,10.60
2018-11-03T15:40:29.440Z,10.50
2018-11-03T15:42:58.027Z,10.50
2018-11-03T15:45:26.590Z,10.50
2018-11-03T15:47:55.151Z,10.50
2018-11-03T15:50:23.663Z,10.50
2018-11-03T15:52:52.115Z,10.50
2018-11-03T15:55:20.601Z,10.50
2018-11-03T15:57:49.095Z,10.50
2018-11-03T16:00:19.114Z,10.50
2018-11-03T16:02:48.017Z,10.40
2018-11-03T16:05:16.886Z,10.40
2018-11-03T16:07:46.169Z,10.40
2018-11-03T16:10:14.788Z,10.50
2018-11-03T16:12:43.514Z,10.50
2018-11-03T16:15:12.925Z,10.50
2018-11-03T16:17:41.936Z,10.50
2018-11-03T16:20:11.778Z,10.40
2018-11-03T16:22:40.455Z,10.40
2018-11-03T16:25:09.543Z,10.40
2018-11-03T16:27:38.940Z,10.40
2018-11-03T16:30:13.620Z,10.40
2018-11-03T16:32:42.317Z,10.40
2018-11-03T16:35:10.841Z,10.40
2018-11-03T16:37:40.067Z,10.40
2018-11-03T16:40:10.158Z,10.40
2018-11-03T16:42:38.612Z,10.40
2018-11-03T16:45:08.550Z,10.50
2018-11-03T16:47:37.184Z,10.40
2018-11-03T16:50:07.340Z,10.40
2018-11-03T16:52:42.984Z,10.40
2018-11-03T16:55:12.473Z,10.40
2018-11-03T16:57:41.183Z,10.40
2018-11-03T17:00:12.037Z,10.40
2018-11-03T17:02:41.015Z,10.30
2018-11-03T17:05:10.889Z,10.40
2018-11-03T17:07:39.394Z,10.30
2018-11-03T17:10:13.148Z,10.30
2018-11-03T17:12:43.147Z,10.30
2018-11-03T17:15:12.030Z,10.30
2018-11-03T17:17:40.567Z,10.30
2018-11-03T17:20:09.676Z,10.20
2018-11-03T17:22:38.572Z,10.30
2018-11-03T17:25:09.001Z,10.30
2018-11-03T17:27:37.450Z,10.30
2018-11-03T17:30:07.560Z,10.20
2018-11-03T17:32:36.320Z,10.20
2018-11-03T17:35:05.100Z,10.20
2018-11-03T17:37:33.646Z,10.20
2018-11-03T17:40:02.190Z,10.20
2018-11-03T17:42:30.716Z,10.20
2018-11-03T17:44:59.266Z,10.20
2018-11-03T17:47:27.720Z,10.10
2018-11-03T17:49:56.300Z,10.20
2018-11-03T17:52:24.804Z,10.20
2018-11-03T17:54:53.471Z,10.20
2018-11-03T17:57:21.884Z,10.20
2018-11-03T17:59:50.403Z,10.20
2018-11-03T18:02:18.850Z,10.20
2018-11-03T18:04:47.440Z,10.10
2018-11-03T18:07:15.997Z,10.10
2018-11-03T18:09:44.596Z,10.10
2018-11-03T18:12:13.180Z,10.10
2018-11-03T18:14:41.697Z,10.10
2018-11-03T18:17:10.236Z,10.10
2018-11-03T18:19:38.843Z,10.10
2018-11-03T18:22:07.312Z,10.10
2018-11-03T18:24:35.857Z,10.10
2018-11-03T18:27:04.981Z,10.10
2018-11-03T18:29:33.478Z,10.10
2018-11-03T18:32:02.078Z,10.10
2018-11-03T18:34:30.580Z,10.10
2018-11-03T18:36:59.728Z,10.10
2018-11-03T18:39:28.295Z,10.10
2018-11-03T18:41:56.811Z,10.10
2018-11-03T18:44:25.428Z,10.10
2018-11-03T18:46:53.934Z,10.10
2018-11-03T18:49:22.424Z,10.10
2018-11-03T18:51:51.149Z,10.10
2018-11-03T18:54:19.792Z,10.10
2018-11-03T18:56:48.364Z,10.10
2018-11-03T18:59:16.916Z,10.00
2018-11-03T19:01:45.533Z,10.10
2018-11-03T19:04:14.041Z,10.00
2018-11-03T19:06:42.694Z,10.00
2018-11-03T19:09:11.321Z,10.00
2018-11-03T19:11:39.864Z,10.00
2018-11-03T19:14:08.348Z,10.00
2018-11-03T19:16:37.019Z,10.00
2018-11-03T19:19:05.702Z,9.90
2018-11-03T19:21:34.235Z,9.90
2018-11-03T19:24:02.737Z,9.90
2018-11-03T19:26:31.192Z,9.90
2018-11-03T19:28:59.722Z,9.90
2018-11-03T19:31:28.155Z,9.90
2018-11-03T19:33:56.717Z,9.90
2018-11-03T19:36:25.202Z,9.90
2018-11-03T19:38:53.801Z,9.90
2018-11-03T19:41:22.582Z,9.90
2018-11-03T19:43:51.061Z,9.90
2018-11-03T19:46:19.514Z,9.90
2018-11-03T19:48:47.979Z,9.90
2018-11-03T19:51:16.655Z,9.90
2018-11-03T19:53:45.135Z,9.90
2018-11-03T19:56:13.611Z,9.90
2018-11-03T19:58:42.203Z,9.80
2018-11-03T20:01:10.727Z,9.90
2018-11-03T20:03:39.282Z,9.90
2018-11-03T20:06:07.841Z,9.90
2018-11-03T20:08:36.295Z,9.90
2018-11-03T20:11:04.937Z,9.90
2018-11-03T20:13:33.457Z,9.90
2018-11-03T20:16:02.009Z,9.90
2018-11-03T20:18:30.556Z,9.90
2018-11-03T20:20:59.127Z,9.90
2018-11-03T20:23:27.637Z,9.90
2018-11-03T20:26:05.199Z,9.90
2018-11-03T20:28:33.660Z,9.90
2018-11-03T20:31:02.138Z,9.90
2018-11-03T20:33:31.766Z,9.90
2018-11-03T20:36:00.265Z,9.90
2018-11-03T20:38:28.778Z,9.90
2018-11-03T20:40:57.416Z,9.80
2018-11-03T20:43:25.891Z,9.90
2018-11-03T20:45:54.412Z,9.90
2018-11-03T20:48:23.274Z,9.90
2018-11-03T20:50:55.945Z,9.90
2018-11-03T20:53:24.623Z,9.80
2018-11-03T20:55:53.141Z,9.80
2018-11-03T20:58:21.591Z,9.80
2018-11-03T21:00:50.145Z,9.90
2018-11-03T21:03:18.637Z,9.80
2018-11-03T21:05:47.100Z,9.80
2018-11-03T21:08:15.843Z,9.90
2018-11-03T21:10:44.250Z,9.80
2018-11-03T21:13:13.820Z,9.80
2018-11-03T21:15:42.473Z,9.90
2018-11-03T21:18:10.922Z,9.90
2018-11-03T21:20:39.435Z,9.80
2018-11-03T21:23:08.494Z,9.90
2018-11-03T21:25:37.272Z,9.80
2018-11-03T21:28:06.155Z,9.80
2018-11-03T21:30:35.077Z,9.90
2018-11-03T21:33:03.787Z,9.80
2018-11-03T21:35:32.187Z,9.80
2018-11-03T21:38:00.736Z,9.80
2018-11-03T21:40:29.220Z,9.80
2018-11-03T21:42:57.911Z,9.80
2018-11-03T21:45:26.474Z,9.80
2018-11-03T21:47:54.976Z,9.80
2018-11-03T21:50:23.540Z,9.80
2018-11-03T21:52:52.137Z,9.80
2018-11-03T21:55:20.654Z,9.80
2018-11-03T21:57:49.439Z,9.80
2018-11-03T22:00:18.069Z,9.80
2018-11-03T22:02:46.656Z,9.80
2018-11-03T22:05:15.131Z,9.80
2018-11-03T22:07:44.224Z,9.80
2018-11-03T22:10:12.804Z,9.80
2018-11-03T22:12:42.414Z,9.80
2018-11-03T22:15:10.996Z,9.80
2018-11-03T22:17:39.475Z,9.80
2018-11-03T22:20:09.455Z,9.80
2018-11-03T22:22:38.292Z,9.80
2018-11-03T22:25:07.775Z,9.80
2018-11-03T22:27:36.869Z,9.80
2018-11-03T22:30:06.171Z,9.80
2018-11-03T22:32:34.737Z,9.80
2018-11-03T22:35:03.472Z,9.80
2018-11-03T22:37:32.034Z,9.80
2018-11-03T22:40:00.646Z,9.80
2018-11-03T22:42:29.097Z,9.80
2018-11-03T22:44:57.766Z,9.80
2018-11-03T22:47:26.239Z,9.80
2018-11-03T22:49:54.732Z,9.80
2018-11-03T22:52:23.204Z,9.80
2018-11-03T22:54:54.756Z,9.80
2018-11-03T22:57:23.239Z,9.70
2018-11-03T22:59:51.739Z,9.80
2018-11-03T23:02:20.294Z,9.80
2018-11-03T23:04:48.784Z,9.80
2018-11-03T23:07:17.255Z,9.80
2018-11-03T23:09:45.745Z,9.80
2018-11-03T23:12:14.237Z,9.80
2018-11-03T23:14:42.803Z,9.80
2018-11-03T23:17:11.258Z,9.70
2018-11-03T23:19:40.325Z,9.80
2018-11-03T23:22:09.240Z,9.70
2018-11-03T23:24:37.954Z,9.70
2018-11-03T23:27:06.629Z,9.70
2018-11-03T23:29:35.268Z,9.70
2018-11-03T23:32:03.664Z,9.70
2018-11-03T23:34:32.381Z,9.80
2018-11-03T23:37:01.247Z,9.70
2018-11-03T23:39:30.024Z,9.70
2018-11-03T23:41:58.699Z,9.70
2018-11-03T23:44:27.524Z,9.70
2018-11-03T23:46:55.974Z,9.70
2018-11-03T23:49:25.037Z,9.70
2018-11-03T23:51:53.531Z,9.70
2018-11-03T23:54:22.362Z,9.70
2018-11-03T23:56:51.116Z,9.70
2018-11-03T23:59:19.935Z,9.70
